sensor_id;sensor_type;location;lat;lon;timestamp;pressure;altitude;pressure_sealevel;temperature;humidity
80648;BME280;70012;0.000;0.000;2024-01-30T00:00:06;101853.13;;;4.73;84.65
80648;BME280;70012;0.000;0.000;2024-01-30T00:02:34;101863.78;;;4.74;85.22
80648;BME280;70012;0.000;0.000;2024-01-30T00:05:01;101852.97;;;4.66;85.59
80648;BME280;70012;0.000;0.000;2024-01-30T00:07:27;101861.44;;;4.71;84.47
80648;BME280;70012;0.000;0.000;2024-01-30T00:09:54;101860.09;;;4.67;84.82
80648;BME280;70012;0.000;0.000;2024-01-30T00:12:21;101864.69;;;4.67;84.77
80648;BME280;70012;0.000;0.000;2024-01-30T00:14:47;101849.63;;;4.56;86.45
80648;BME280;70012;0.000;0.000;2024-01-30T00:17:19;101841.00;;;4.52;86.47
80648;BME280;70012;0.000;0.000;2024-01-30T00:19:47;101861.50;;;4.55;86.29
80648;BME280;70012;0.000;0.000;2024-01-30T00:22:14;101857.28;;;4.52;86.45
80648;BME280;70012;0.000;0.000;2024-01-30T00:24:41;101849.34;;;4.51;86.54
80648;BME280;70012;0.000;0.000;2024-01-30T00:27:08;101846.78;;;4.49;85.55
80648;BME280;70012;0.000;0.000;2024-01-30T00:29:34;101833.41;;;4.47;84.73
80648;BME280;70012;0.000;0.000;2024-01-30T00:32:01;101849.34;;;4.51;84.70
80648;BME280;70012;0.000;0.000;2024-01-30T00:34:28;101844.06;;;4.49;84.67
80648;BME280;70012;0.000;0.000;2024-01-30T00:36:55;101845.94;;;4.48;84.65
80648;BME280;70012;0.000;0.000;2024-01-30T00:39:21;101834.25;;;4.48;84.35
80648;BME280;70012;0.000;0.000;2024-01-30T00:41:48;101837.50;;;4.43;84.50
80648;BME280;70012;0.000;0.000;2024-01-30T00:44:15;101829.88;;;4.39;84.57
80648;BME280;70012;0.000;0.000;2024-01-30T00:46:41;101832.41;;;4.40;84.16
80648;BME280;70012;0.000;0.000;2024-01-30T00:49:08;101836.13;;;4.39;84.35
80648;BME280;70012;0.000;0.000;2024-01-30T00:51:36;101821.44;;;4.33;84.15
80648;BME280;70012;0.000;0.000;2024-01-30T00:54:03;101830.22;;;4.36;83.77
80648;BME280;70012;0.000;0.000;2024-01-30T00:56:29;101826.69;;;4.27;83.61
80648;BME280;70012;0.000;0.000;2024-01-30T00:58:57;101823.00;;;4.20;84.56
80648;BME280;70012;0.000;0.000;2024-01-30T01:01:24;101831.63;;;4.23;85.79
80648;BME280;70012;0.000;0.000;2024-01-30T01:03:50;101832.00;;;4.20;86.80
80648;BME280;70012;0.000;0.000;2024-01-30T01:06:17;101824.00;;;4.19;87.77
80648;BME280;70012;0.000;0.000;2024-01-30T01:08:44;101827.06;;;4.24;87.53
80648;BME280;70012;0.000;0.000;2024-01-30T01:11:10;101827.22;;;4.22;86.54
80648;BME280;70012;0.000;0.000;2024-01-30T01:13:37;101822.34;;;4.18;87.70
80648;BME280;70012;0.000;0.000;2024-01-30T01:16:04;101831.13;;;4.20;88.52
80648;BME280;70012;0.000;0.000;2024-01-30T01:18:30;101831.13;;;4.20;88.50
80648;BME280;70012;0.000;0.000;2024-01-30T01:20:57;101821.00;;;4.13;86.68
80648;BME280;70012;0.000;0.000;2024-01-30T01:23:24;101826.19;;;4.23;86.38
80648;BME280;70012;0.000;0.000;2024-01-30T01:25:50;101828.09;;;4.23;86.07
80648;BME280;70012;0.000;0.000;2024-01-30T01:28:17;101823.84;;;4.20;85.10
80648;BME280;70012;0.000;0.000;2024-01-30T01:30:44;101824.34;;;4.24;85.14
80648;BME280;70012;0.000;0.000;2024-01-30T01:33:10;101828.09;;;4.23;85.22
80648;BME280;70012;0.000;0.000;2024-01-30T01:35:41;101821.97;;;4.21;85.14
80648;BME280;70012;0.000;0.000;2024-01-30T01:38:07;101815.56;;;4.13;86.55
80648;BME280;70012;0.000;0.000;2024-01-30T01:40:34;101820.34;;;4.11;86.38
80648;BME280;70012;0.000;0.000;2024-01-30T01:43:03;101818.94;;;4.15;85.91
80648;BME280;70012;0.000;0.000;2024-01-30T01:45:29;101822.69;;;4.14;86.43
80648;BME280;70012;0.000;0.000;2024-01-30T01:47:56;101822.19;;;4.11;86.44
80648;BME280;70012;0.000;0.000;2024-01-30T01:50:24;101825.06;;;4.09;86.12
80648;BME280;70012;0.000;0.000;2024-01-30T01:52:51;101821.34;;;4.10;86.88
80648;BME280;70012;0.000;0.000;2024-01-30T01:55:21;101828.81;;;4.08;86.62
80648;BME280;70012;0.000;0.000;2024-01-30T01:57:49;101814.56;;;4.06;87.89
80648;BME280;70012;0.000;0.000;2024-01-30T02:00:16;101819.28;;;4.12;87.62
80648;BME280;70012;0.000;0.000;2024-01-30T02:02:43;101823.69;;;4.13;87.53
80648;BME280;70012;0.000;0.000;2024-01-30T02:05:11;101816.44;;;4.14;88.35
80648;BME280;70012;0.000;0.000;2024-01-30T02:07:38;101816.25;;;4.15;87.93
80648;BME280;70012;0.000;0.000;2024-01-30T02:10:07;101804.72;;;4.13;88.36
80648;BME280;70012;0.000;0.000;2024-01-30T02:12:34;101811.84;;;4.14;88.74
80648;BME280;70012;0.000;0.000;2024-01-30T02:15:01;101812.53;;;4.16;87.60
80648;BME280;70012;0.000;0.000;2024-01-30T02:17:27;101814.03;;;4.19;87.04
80648;BME280;70012;0.000;0.000;2024-01-30T02:19:54;101801.00;;;4.14;87.15
80648;BME280;70012;0.000;0.000;2024-01-30T02:22:21;101803.03;;;4.12;87.67
80648;BME280;70012;0.000;0.000;2024-01-30T02:24:49;101800.66;;;4.18;86.92
80648;BME280;70012;0.000;0.000;2024-01-30T02:27:15;101815.72;;;4.20;87.11
80648;BME280;70012;0.000;0.000;2024-01-30T02:29:42;101807.59;;;4.20;87.92
80648;BME280;70012;0.000;0.000;2024-01-30T02:32:09;101812.50;;;4.25;88.88
80648;BME280;70012;0.000;0.000;2024-01-30T02:34:35;101807.41;;;4.22;87.29
80648;BME280;70012;0.000;0.000;2024-01-30T02:37:02;101797.25;;;4.24;87.22
80648;BME280;70012;0.000;0.000;2024-01-30T02:39:29;101807.72;;;4.27;86.99
80648;BME280;70012;0.000;0.000;2024-01-30T02:41:56;101802.00;;;4.22;87.17
80648;BME280;70012;0.000;0.000;2024-01-30T02:44:23;101814.16;;;4.26;86.35
80648;BME280;70012;0.000;0.000;2024-01-30T02:46:49;101807.41;;;4.22;86.52
80648;BME280;70012;0.000;0.000;2024-01-30T02:49:17;101799.66;;;4.10;87.43
80648;BME280;70012;0.000;0.000;2024-01-30T02:51:44;101799.47;;;4.20;89.63
80648;BME280;70012;0.000;0.000;2024-01-30T02:54:11;101804.38;;;4.16;88.78
80648;BME280;70012;0.000;0.000;2024-01-30T02:56:37;101787.81;;;4.11;89.25
80648;BME280;70012;0.000;0.000;2024-01-30T02:59:04;101791.47;;;4.19;88.47
80648;BME280;70012;0.000;0.000;2024-01-30T03:01:30;101779.31;;;4.14;88.28
80648;BME280;70012;0.000;0.000;2024-01-30T03:03:58;101788.63;;;4.20;87.35
80648;BME280;70012;0.000;0.000;2024-01-30T03:06:25;101785.91;;;4.20;86.96
80648;BME280;70012;0.000;0.000;2024-01-30T03:08:51;101791.16;;;4.22;86.66
80648;BME280;70012;0.000;0.000;2024-01-30T03:11:18;101785.22;;;4.18;86.99
80648;BME280;70012;0.000;0.000;2024-01-30T03:13:45;101795.56;;;4.14;87.02
80648;BME280;70012;0.000;0.000;2024-01-30T03:16:11;101785.94;;;4.12;87.50
80648;BME280;70012;0.000;0.000;2024-01-30T03:18:38;101789.31;;;4.14;89.79
80648;BME280;70012;0.000;0.000;2024-01-30T03:21:04;101785.75;;;4.13;89.27
80648;BME280;70012;0.000;0.000;2024-01-30T03:23:31;101790.16;;;4.14;89.01
80648;BME280;70012;0.000;0.000;2024-01-30T03:25:58;101787.44;;;4.14;88.82
80648;BME280;70012;0.000;0.000;2024-01-30T03:28:25;101783.03;;;4.13;88.44
80648;BME280;70012;0.000;0.000;2024-01-30T03:30:52;101779.31;;;4.14;88.29
80648;BME280;70012;0.000;0.000;2024-01-30T03:33:19;101788.47;;;4.13;87.62
80648;BME280;70012;0.000;0.000;2024-01-30T03:35:45;101777.63;;;4.05;87.33
80648;BME280;70012;0.000;0.000;2024-01-30T03:38:12;101776.63;;;4.06;87.76
80648;BME280;70012;0.000;0.000;2024-01-30T03:40:39;101783.75;;;4.07;87.09
80648;BME280;70012;0.000;0.000;2024-01-30T03:43:05;101775.28;;;4.02;87.07
80648;BME280;70012;0.000;0.000;2024-01-30T03:45:32;101778.00;;;4.02;87.07
80648;BME280;70012;0.000;0.000;2024-01-30T03:47:59;101777.00;;;4.03;86.70
80648;BME280;70012;0.000;0.000;2024-01-30T03:50:25;101777.16;;;4.01;86.81
80648;BME280;70012;0.000;0.000;2024-01-30T03:52:52;101777.31;;;4.00;86.94
80648;BME280;70012;0.000;0.000;2024-01-30T03:55:18;101775.63;;;3.99;86.62
80648;BME280;70012;0.000;0.000;2024-01-30T03:57:45;101773.97;;;3.98;86.42
80648;BME280;70012;0.000;0.000;2024-01-30T04:00:12;101768.19;;;4.01;86.45
80648;BME280;70012;0.000;0.000;2024-01-30T04:02:40;101765.84;;;3.98;86.18
80648;BME280;70012;0.000;0.000;2024-01-30T04:05:07;101767.50;;;3.99;86.85
80648;BME280;70012;0.000;0.000;2024-01-30T04:07:34;101775.13;;;4.04;87.23
80648;BME280;70012;0.000;0.000;2024-01-30T04:10:01;101755.66;;;4.00;88.86
80648;BME280;70012;0.000;0.000;2024-01-30T04:12:27;101758.94;;;4.19;90.05
80648;BME280;70012;0.000;0.000;2024-01-30T04:14:54;101766.13;;;4.43;91.40
80648;BME280;70012;0.000;0.000;2024-01-30T04:17:20;101774.00;;;4.61;91.11
80648;BME280;70012;0.000;0.000;2024-01-30T04:19:47;101761.09;;;4.63;89.32
80648;BME280;70012;0.000;0.000;2024-01-30T04:22:14;101748.91;;;4.59;88.45
80648;BME280;70012;0.000;0.000;2024-01-30T04:24:40;101764.47;;;4.65;87.27
80648;BME280;70012;0.000;0.000;2024-01-30T04:27:07;101745.88;;;4.54;87.08
80648;BME280;70012;0.000;0.000;2024-01-30T04:29:34;101757.22;;;4.57;87.40
80648;BME280;70012;0.000;0.000;2024-01-30T04:32:00;101755.03;;;4.53;87.60
80648;BME280;70012;0.000;0.000;2024-01-30T04:34:27;101757.13;;;4.51;86.63
80648;BME280;70012;0.000;0.000;2024-01-30T04:36:54;101755.75;;;4.46;87.02
80648;BME280;70012;0.000;0.000;2024-01-30T04:39:20;101751.44;;;4.37;87.21
80648;BME280;70012;0.000;0.000;2024-01-30T04:41:47;101748.88;;;4.36;86.70
80648;BME280;70012;0.000;0.000;2024-01-30T04:44:14;101751.78;;;4.34;86.73
80648;BME280;70012;0.000;0.000;2024-01-30T04:46:41;101755.50;;;4.33;86.91
80648;BME280;70012;0.000;0.000;2024-01-30T04:49:07;101763.81;;;4.31;86.44
80648;BME280;70012;0.000;0.000;2024-01-30T04:51:34;101758.91;;;4.27;86.78
80648;BME280;70012;0.000;0.000;2024-01-30T04:54:01;101753.19;;;4.22;86.43
80648;BME280;70012;0.000;0.000;2024-01-30T04:56:27;101751.88;;;4.18;86.58
80648;BME280;70012;0.000;0.000;2024-01-30T04:58:54;101755.59;;;4.16;86.50
80648;BME280;70012;0.000;0.000;2024-01-30T05:01:21;101743.97;;;3.99;87.01
80648;BME280;70012;0.000;0.000;2024-01-30T05:03:47;101759.03;;;4.02;87.28
80648;BME280;70012;0.000;0.000;2024-01-30T05:06:24;101770.88;;;4.01;87.45
80648;BME280;70012;0.000;0.000;2024-01-30T05:08:50;101767.56;;;3.91;87.59
80648;BME280;70012;0.000;0.000;2024-01-30T05:11:17;101773.47;;;3.94;89.08
80648;BME280;70012;0.000;0.000;2024-01-30T05:13:44;101766.50;;;3.92;89.88
80648;BME280;70012;0.000;0.000;2024-01-30T05:16:10;101773.97;;;3.98;88.95
80648;BME280;70012;0.000;0.000;2024-01-30T05:18:37;101770.56;;;3.96;88.29
80648;BME280;70012;0.000;0.000;2024-01-30T05:24:18;101744.50;;;3.95;90.90
80648;BME280;70012;0.000;0.000;2024-01-30T05:26:47;101770.88;;;4.09;89.70
80648;BME280;70012;0.000;0.000;2024-01-30T05:29:14;101753.75;;;4.09;90.39
80648;BME280;70012;0.000;0.000;2024-01-30T05:31:41;101771.00;;;4.16;90.03
80648;BME280;70012;0.000;0.000;2024-01-30T05:34:07;101759.31;;;4.15;89.04
80648;BME280;70012;0.000;0.000;2024-01-30T05:36:35;101744.59;;;4.10;88.12
80648;BME280;70012;0.000;0.000;2024-01-30T05:39:04;101753.41;;;4.12;88.80
80648;BME280;70012;0.000;0.000;2024-01-30T05:41:34;101742.91;;;4.09;87.93
80648;BME280;70012;0.000;0.000;2024-01-30T05:44:01;101747.31;;;4.10;87.32
80648;BME280;70012;0.000;0.000;2024-01-30T05:46:27;101747.81;;;4.05;87.29
80648;BME280;70012;0.000;0.000;2024-01-30T05:48:54;101740.25;;;4.00;87.10
80648;BME280;70012;0.000;0.000;2024-01-30T05:51:21;101737.19;;;3.95;87.01
80648;BME280;70012;0.000;0.000;2024-01-30T05:53:48;101733.34;;;3.90;87.29
80648;BME280;70012;0.000;0.000;2024-01-30T05:56:15;101747.53;;;3.92;87.44
80648;BME280;70012;0.000;0.000;2024-01-30T05:58:41;101741.47;;;3.90;87.48
80648;BME280;70012;0.000;0.000;2024-01-30T06:01:09;101738.91;;;3.88;87.29
80648;BME280;70012;0.000;0.000;2024-01-30T06:03:36;101752.97;;;3.92;87.27
80648;BME280;70012;0.000;0.000;2024-01-30T06:06:03;101752.00;;;3.84;87.58
80648;BME280;70012;0.000;0.000;2024-01-30T06:08:30;101762.13;;;3.91;88.26
80648;BME280;70012;0.000;0.000;2024-01-30T06:10:56;101757.06;;;3.88;89.50
80648;BME280;70012;0.000;0.000;2024-01-30T06:13:23;101762.28;;;3.89;89.74
80648;BME280;70012;0.000;0.000;2024-01-30T06:15:50;101759.44;;;3.91;89.00
80648;BME280;70012;0.000;0.000;2024-01-30T06:18:16;101756.03;;;3.89;88.65
80648;BME280;70012;0.000;0.000;2024-01-30T06:20:43;101770.09;;;3.92;88.62
80648;BME280;70012;0.000;0.000;2024-01-30T06:23:10;101757.06;;;3.88;90.20
80648;BME280;70012;0.000;0.000;2024-01-30T06:25:37;101755.34;;;3.87;91.20
80648;BME280;70012;0.000;0.000;2024-01-30T06:28:03;101754.66;;;3.93;90.44
80648;BME280;70012;0.000;0.000;2024-01-30T06:30:30;101742.19;;;3.83;89.79
80648;BME280;70012;0.000;0.000;2024-01-30T06:32:57;101760.06;;;3.93;89.26
80648;BME280;70012;0.000;0.000;2024-01-30T06:35:24;101752.97;;;3.92;89.08
80648;BME280;70012;0.000;0.000;2024-01-30T06:37:51;101731.97;;;3.85;88.35
80648;BME280;70012;0.000;0.000;2024-01-30T06:40:17;101750.25;;;3.92;87.99
80648;BME280;70012;0.000;0.000;2024-01-30T06:42:44;101737.06;;;3.89;88.91
80648;BME280;70012;0.000;0.000;2024-01-30T06:45:11;101733.84;;;3.93;89.87
80648;BME280;70012;0.000;0.000;2024-01-30T06:47:37;101740.78;;;3.96;90.33
80648;BME280;70012;0.000;0.000;2024-01-30T06:50:04;101735.69;;;3.93;89.09
80648;BME280;70012;0.000;0.000;2024-01-30T06:52:31;101738.06;;;3.96;88.66
80648;BME280;70012;0.000;0.000;2024-01-30T06:54:58;101715.72;;;3.85;88.02
80648;BME280;70012;0.000;0.000;2024-01-30T06:57:25;101734.00;;;3.92;87.94
80648;BME280;70012;0.000;0.000;2024-01-30T06:59:54;101729.97;;;3.88;87.75
80648;BME280;70012;0.000;0.000;2024-01-30T07:02:21;101724.91;;;3.84;87.95
80648;BME280;70012;0.000;0.000;2024-01-30T07:04:48;101734.19;;;3.90;88.34
80648;BME280;70012;0.000;0.000;2024-01-30T07:07:16;101733.03;;;3.84;88.63
80648;BME280;70012;0.000;0.000;2024-01-30T07:09:42;101726.56;;;3.85;87.83
80648;BME280;70012;0.000;0.000;2024-01-30T07:12:09;101738.75;;;3.90;87.81
80648;BME280;70012;0.000;0.000;2024-01-30T07:14:36;101732.97;;;3.93;88.39
80648;BME280;70012;0.000;0.000;2024-01-30T07:17:03;101736.84;;;3.98;91.19
80648;BME280;70012;0.000;0.000;2024-01-30T07:19:29;101737.34;;;4.02;89.53
80648;BME280;70012;0.000;0.000;2024-01-30T07:21:56;101732.94;;;4.01;89.83
80648;BME280;70012;0.000;0.000;2024-01-30T07:24:23;101745.78;;;4.07;88.64
80648;BME280;70012;0.000;0.000;2024-01-30T07:26:50;101742.41;;;4.05;88.51
80648;BME280;70012;0.000;0.000;2024-01-30T07:29:18;101735.31;;;4.04;88.96
80648;BME280;70012;0.000;0.000;2024-01-30T07:31:44;101750.72;;;4.04;88.58
80648;BME280;70012;0.000;0.000;2024-01-30T07:34:11;101748.53;;;3.99;88.55
80648;BME280;70012;0.000;0.000;2024-01-30T07:36:38;101741.91;;;4.01;89.75
80648;BME280;70012;0.000;0.000;2024-01-30T07:39:05;101759.66;;;4.12;91.42
80648;BME280;70012;0.000;0.000;2024-01-30T07:41:32;101749.19;;;4.09;91.19
80648;BME280;70012;0.000;0.000;2024-01-30T07:44:00;101766.25;;;4.18;90.85
80648;BME280;70012;0.000;0.000;2024-01-30T07:46:26;101766.06;;;4.20;90.58
80648;BME280;70012;0.000;0.000;2024-01-30T07:48:53;101768.78;;;4.20;89.96
80648;BME280;70012;0.000;0.000;2024-01-30T07:51:21;101764.88;;;4.22;89.08
80648;BME280;70012;0.000;0.000;2024-01-30T07:53:47;101753.53;;;4.19;89.85
80648;BME280;70012;0.000;0.000;2024-01-30T07:56:14;101772.97;;;4.30;91.52
80648;BME280;70012;0.000;0.000;2024-01-30T07:58:42;101756.38;;;4.33;92.57
80648;BME280;70012;0.000;0.000;2024-01-30T08:01:09;101760.59;;;4.36;92.38
80648;BME280;70012;0.000;0.000;2024-01-30T08:03:35;101772.22;;;4.45;91.35
80648;BME280;70012;0.000;0.000;2024-01-30T08:06:03;101783.75;;;4.47;90.50
80648;BME280;70012;0.000;0.000;2024-01-30T08:08:30;101782.53;;;4.49;89.44
80648;BME280;70012;0.000;0.000;2024-01-30T08:10:57;101781.69;;;4.49;89.00
80648;BME280;70012;0.000;0.000;2024-01-30T08:13:23;101778.81;;;4.51;88.57
80648;BME280;70012;0.000;0.000;2024-01-30T08:15:50;101785.91;;;4.52;88.72
80648;BME280;70012;0.000;0.000;2024-01-30T08:18:17;101775.06;;;4.52;89.64
80648;BME280;70012;0.000;0.000;2024-01-30T08:20:43;101773.00;;;4.54;88.50
80648;BME280;70012;0.000;0.000;2024-01-30T08:23:10;101759.16;;;4.48;89.59
80648;BME280;70012;0.000;0.000;2024-01-30T08:25:36;101759.97;;;4.49;88.38
80648;BME280;70012;0.000;0.000;2024-01-30T08:28:03;101772.66;;;4.57;88.41
80648;BME280;70012;0.000;0.000;2024-01-30T08:30:30;101776.22;;;4.57;88.08
80648;BME280;70012;0.000;0.000;2024-01-30T08:32:57;101757.13;;;4.51;88.64
80648;BME280;70012;0.000;0.000;2024-01-30T08:35:24;101765.19;;;4.59;89.35
80648;BME280;70012;0.000;0.000;2024-01-30T08:37:51;101757.22;;;4.57;90.41
80648;BME280;70012;0.000;0.000;2024-01-30T08:40:18;101747.59;;;4.55;89.29
80648;BME280;70012;0.000;0.000;2024-01-30T08:42:45;101754.66;;;4.64;89.65
80648;BME280;70012;0.000;0.000;2024-01-30T08:45:11;101763.41;;;4.74;90.35
80648;BME280;70012;0.000;0.000;2024-01-30T08:47:38;101750.56;;;4.68;89.81
80648;BME280;70012;0.000;0.000;2024-01-30T08:50:05;101769.13;;;4.79;90.35
80648;BME280;70012;0.000;0.000;2024-01-30T08:52:32;101767.75;;;4.84;89.91
80648;BME280;70012;0.000;0.000;2024-01-30T08:55:00;101772.81;;;4.87;89.65
80648;BME280;70012;0.000;0.000;2024-01-30T08:57:27;101778.53;;;4.92;89.59
80648;BME280;70012;0.000;0.000;2024-01-30T08:59:56;101784.63;;;4.94;89.33
80648;BME280;70012;0.000;0.000;2024-01-30T09:02:23;101785.97;;;4.98;89.04
80648;BME280;70012;0.000;0.000;2024-01-30T09:04:50;101782.41;;;4.97;89.00
80648;BME280;70012;0.000;0.000;2024-01-30T09:07:17;101780.53;;;4.98;89.15
80648;BME280;70012;0.000;0.000;2024-01-30T09:09:43;101785.59;;;5.01;89.74
80648;BME280;70012;0.000;0.000;2024-01-30T09:12:10;101793.50;;;5.11;90.69
80648;BME280;70012;0.000;0.000;2024-01-30T09:14:39;101796.34;;;5.18;91.83
80648;BME280;70012;0.000;0.000;2024-01-30T09:17:07;101787.28;;;5.25;91.89
80648;BME280;70012;0.000;0.000;2024-01-30T09:19:33;101797.16;;;5.41;92.10
80648;BME280;70012;0.000;0.000;2024-01-30T09:22:00;101794.16;;;5.51;93.11
80648;BME280;70012;0.000;0.000;2024-01-30T09:24:27;101800.00;;;5.63;93.09
80648;BME280;70012;0.000;0.000;2024-01-30T09:26:54;101798.25;;;5.85;93.87
80648;BME280;70012;0.000;0.000;2024-01-30T09:29:21;101809.81;;;6.02;94.54
80648;BME280;70012;0.000;0.000;2024-01-30T09:31:48;101816.19;;;6.09;93.41
80648;BME280;70012;0.000;0.000;2024-01-30T09:34:14;101804.94;;;6.13;94.08
80648;BME280;70012;0.000;0.000;2024-01-30T09:36:41;101814.31;;;6.25;93.49
80648;BME280;70012;0.000;0.000;2024-01-30T09:39:07;101822.94;;;6.44;93.88
80648;BME280;70012;0.000;0.000;2024-01-30T09:41:53;101817.66;;;6.57;93.62
80648;BME280;70012;0.000;0.000;2024-01-30T09:44:23;101818.34;;;6.81;93.86
80648;BME280;70012;0.000;0.000;2024-01-30T09:46:51;101818.88;;;6.91;93.80
80648;BME280;70012;0.000;0.000;2024-01-30T09:49:18;101826.53;;;7.02;94.06
80648;BME280;70012;0.000;0.000;2024-01-30T09:51:47;101826.09;;;7.20;93.32
80648;BME280;70012;0.000;0.000;2024-01-30T09:54:15;101826.66;;;7.37;93.51
80648;BME280;70012;0.000;0.000;2024-01-30T09:56:42;101821.94;;;7.53;93.84
80648;BME280;70012;0.000;0.000;2024-01-30T09:59:09;101833.81;;;7.67;93.20
80648;BME280;70012;0.000;0.000;2024-01-30T10:01:36;101837.69;;;7.79;91.82
80648;BME280;70012;0.000;0.000;2024-01-30T10:04:04;101842.13;;;7.87;91.67
80648;BME280;70012;0.000;0.000;2024-01-30T10:06:31;101834.91;;;8.01;90.73
80648;BME280;70012;0.000;0.000;2024-01-30T10:08:58;101848.03;;;8.19;90.45
80648;BME280;70012;0.000;0.000;2024-01-30T10:11:24;101844.72;;;8.30;89.67
80648;BME280;70012;0.000;0.000;2024-01-30T10:13:51;101833.00;;;8.37;89.88
80648;BME280;70012;0.000;0.000;2024-01-30T10:16:18;101821.94;;;8.45;89.39
80648;BME280;70012;0.000;0.000;2024-01-30T10:18:45;101834.38;;;8.54;88.60
80648;BME280;70012;0.000;0.000;2024-01-30T10:21:12;101843.66;;;8.67;88.25
80648;BME280;70012;0.000;0.000;2024-01-30T10:23:38;101846.63;;;8.72;88.18
80648;BME280;70012;0.000;0.000;2024-01-30T10:26:07;101821.00;;;8.66;88.45
80648;BME280;70012;0.000;0.000;2024-01-30T10:28:34;101826.47;;;8.73;87.63
80648;BME280;70012;0.000;0.000;2024-01-30T10:31:00;101849.63;;;8.90;88.31
80648;BME280;70012;0.000;0.000;2024-01-30T10:33:32;101840.41;;;8.98;88.03
80648;BME280;70012;0.000;0.000;2024-01-30T10:36:03;101845.47;;;9.01;87.06
80648;BME280;70012;0.000;0.000;2024-01-30T10:38:32;101821.50;;;8.96;87.55
80648;BME280;70012;0.000;0.000;2024-01-30T10:41:02;101826.56;;;9.06;87.63
80648;BME280;70012;0.000;0.000;2024-01-30T10:43:32;101825.72;;;9.12;86.46
80648;BME280;70012;0.000;0.000;2024-01-30T10:46:11;101829.94;;;9.15;86.24
80648;BME280;70012;0.000;0.000;2024-01-30T10:48:42;101825.31;;;9.22;86.55
80648;BME280;70012;0.000;0.000;2024-01-30T10:51:11;101832.69;;;9.28;85.61
80648;BME280;70012;0.000;0.000;2024-01-30T10:53:39;101833.97;;;9.33;85.87
80648;BME280;70012;0.000;0.000;2024-01-30T10:56:08;101839.66;;;9.38;85.53
80648;BME280;70012;0.000;0.000;2024-01-30T10:58:34;101821.75;;;9.42;84.65
80648;BME280;70012;0.000;0.000;2024-01-30T11:01:01;101820.72;;;9.50;84.56
80648;BME280;70012;0.000;0.000;2024-01-30T11:03:28;101810.22;;;9.40;85.19
80648;BME280;70012;0.000;0.000;2024-01-30T11:05:59;101816.50;;;9.47;85.28
80648;BME280;70012;0.000;0.000;2024-01-30T11:08:26;101818.19;;;9.55;85.06
80648;BME280;70012;0.000;0.000;2024-01-30T11:10:56;101830.41;;;9.66;84.74
80648;BME280;70012;0.000;0.000;2024-01-30T11:13:30;101824.94;;;9.66;85.03
80648;BME280;70012;0.000;0.000;2024-01-30T11:16:04;101819.66;;;9.71;85.33
80648;BME280;70012;0.000;0.000;2024-01-30T11:18:33;101821.31;;;9.78;85.13
80648;BME280;70012;0.000;0.000;2024-01-30T11:21:04;101829.94;;;9.82;83.98
80648;BME280;70012;0.000;0.000;2024-01-30T11:23:33;101808.91;;;9.89;84.67
80648;BME280;70012;0.000;0.000;2024-01-30T11:26:00;101801.31;;;9.85;84.58
80648;BME280;70012;0.000;0.000;2024-01-30T11:28:33;101815.63;;;10.00;84.46
80648;BME280;70012;0.000;0.000;2024-01-30T11:31:05;101816.00;;;10.10;84.49
80648;BME280;70012;0.000;0.000;2024-01-30T11:33:33;101811.81;;;10.15;83.37
80648;BME280;70012;0.000;0.000;2024-01-30T11:36:01;101802.50;;;10.22;82.78
80648;BME280;70012;0.000;0.000;2024-01-30T11:38:28;101787.78;;;10.23;82.54
80648;BME280;70012;0.000;0.000;2024-01-30T11:40:55;101801.63;;;10.42;82.02
80648;BME280;70012;0.000;0.000;2024-01-30T11:43:23;101794.22;;;10.49;82.25
80648;BME280;70012;0.000;0.000;2024-01-30T11:45:54;101797.59;;;10.45;82.32
80648;BME280;70012;0.000;0.000;2024-01-30T11:48:20;101796.97;;;10.49;81.37
80648;BME280;70012;0.000;0.000;2024-01-30T11:50:50;101805.75;;;10.58;81.50
80648;BME280;70012;0.000;0.000;2024-01-30T11:53:18;101805.75;;;10.65;81.76
80648;BME280;70012;0.000;0.000;2024-01-30T11:55:49;101805.09;;;10.69;81.48
80648;BME280;70012;0.000;0.000;2024-01-30T11:58:16;101798.53;;;10.70;80.87
80648;BME280;70012;0.000;0.000;2024-01-30T12:00:42;101800.19;;;10.78;80.63
80648;BME280;70012;0.000;0.000;2024-01-30T12:03:11;101797.00;;;10.81;79.31
80648;BME280;70012;0.000;0.000;2024-01-30T12:05:37;101794.91;;;10.83;79.83
80648;BME280;70012;0.000;0.000;2024-01-30T12:08:15;101791.72;;;10.86;79.42
80648;BME280;70012;0.000;0.000;2024-01-30T12:10:41;101808.38;;;10.85;79.47
80648;BME280;70012;0.000;0.000;2024-01-30T12:13:08;101801.41;;;10.89;78.83
80648;BME280;70012;0.000;0.000;2024-01-30T12:15:35;101798.88;;;10.87;79.55
80648;BME280;70012;0.000;0.000;2024-01-30T12:18:06;101790.44;;;10.89;79.53
80648;BME280;70012;0.000;0.000;2024-01-30T12:20:36;101790.88;;;10.86;77.85
80648;BME280;70012;0.000;0.000;2024-01-30T12:23:03;101789.59;;;10.88;79.55
80648;BME280;70012;0.000;0.000;2024-01-30T12:25:30;101790.94;;;10.79;78.97
80648;BME280;70012;0.000;0.000;2024-01-30T12:27:57;101814.06;;;10.90;79.87
80648;BME280;70012;0.000;0.000;2024-01-30T12:30:24;101802.69;;;10.86;79.16
80648;BME280;70012;0.000;0.000;2024-01-30T12:32:51;101797.63;;;10.90;78.63
80648;BME280;70012;0.000;0.000;2024-01-30T12:35:19;101798.44;;;10.91;79.21
80648;BME280;70012;0.000;0.000;2024-01-30T12:37:48;101802.00;;;10.91;79.47
80648;BME280;70012;0.000;0.000;2024-01-30T12:40:15;101801.00;;;10.85;78.95
80648;BME280;70012;0.000;0.000;2024-01-30T12:42:43;101812.31;;;10.96;79.51
80648;BME280;70012;0.000;0.000;2024-01-30T12:45:13;101820.31;;;10.97;79.77
80648;BME280;70012;0.000;0.000;2024-01-30T12:47:41;101813.38;;;10.95;79.31
80648;BME280;70012;0.000;0.000;2024-01-30T12:50:08;101818.81;;;11.01;78.61
80648;BME280;70012;0.000;0.000;2024-01-30T12:52:36;101813.13;;;11.03;78.87
80648;BME280;70012;0.000;0.000;2024-01-30T12:55:03;101823.66;;;11.06;78.40
80648;BME280;70012;0.000;0.000;2024-01-30T12:57:30;101823.59;;;11.13;78.48
80648;BME280;70012;0.000;0.000;2024-01-30T12:59:57;101817.28;;;11.12;78.88
80648;BME280;70012;0.000;0.000;2024-01-30T13:02:24;101820.19;;;11.17;78.37
80648;BME280;70012;0.000;0.000;2024-01-30T13:04:52;101823.56;;;11.19;79.02
80648;BME280;70012;0.000;0.000;2024-01-30T13:07:19;101826.47;;;11.25;78.40
80648;BME280;70012;0.000;0.000;2024-01-30T13:09:47;101825.84;;;11.23;78.32
80648;BME280;70012;0.000;0.000;2024-01-30T13:12:14;101835.72;;;11.30;78.38